FAB104 CYOW-CYFB
Flight info
| Callsign | FAB104 |
|---|---|
| Flight time | 2h 24m |
| Altitude | 31000 |
| Route | DCT RADEN DCT HENDY DCT YFY DCT |
| Aircraft | B722/M-SDFGHRWY/C |
Departure
| Time | 2026-04-19 23:08 |
|---|---|
| Airport | Ottawa Macdonald-Cartier International Airport (CYOW) |
Arrival
| Time | 2026-04-20 01:33 |
|---|---|
| Airport | Iqaluit Airport (CYFB) |
| Time | Latitude | Longitude | Altitude | Speed | Heading |
|---|---|---|---|---|---|
| 2026-04-19 22:30 | 45.32087 | -75.66113 | 382 ft | 0 kts | 327° |
| 2026-04-19 22:52 | 45.32072 | -75.66100 | 381 ft | 4 kts | 327° |
| 2026-04-19 22:53 | 45.32054 | -75.66083 | 380 ft | 3 kts | 328° |
| 2026-04-19 22:53 | 45.32034 | -75.66075 | 379 ft | 4 kts | 18° |
| 2026-04-19 22:53 | 45.32021 | -75.66096 | 378 ft | 4 kts | 57° |
| 2026-04-19 22:53 | 45.32012 | -75.66117 | 379 ft | 0 kts | 57° |
| 2026-04-19 23:01 | 45.32014 | -75.66114 | 378 ft | 1 kts | 45° |
| 2026-04-19 23:01 | 45.32029 | -75.66085 | 378 ft | 6 kts | 58° |
| 2026-04-19 23:01 | 45.32061 | -75.66012 | 379 ft | 11 kts | 57° |
| 2026-04-19 23:01 | 45.32114 | -75.65900 | 378 ft | 16 kts | 58° |
| 2026-04-19 23:02 | 45.32163 | -75.65792 | 378 ft | 9 kts | 56° |
| 2026-04-19 23:02 | 45.32204 | -75.65706 | 380 ft | 12 kts | 60° |
| 2026-04-19 23:02 | 45.32255 | -75.65577 | 379 ft | 18 kts | 57° |
| 2026-04-19 23:02 | 45.32330 | -75.65411 | 380 ft | 22 kts | 57° |
| 2026-04-19 23:03 | 45.32423 | -75.65204 | 377 ft | 28 kts | 57° |
| 2026-04-19 23:03 | 45.32532 | -75.64960 | 374 ft | 25 kts | 57° |
| 2026-04-19 23:03 | 45.32591 | -75.64779 | 373 ft | 17 kts | 91° |
| 2026-04-19 23:03 | 45.32575 | -75.64659 | 372 ft | 0 kts | 103° |
| 2026-04-19 23:05 | 45.32574 | -75.64653 | 372 ft | 2 kts | 103° |
| 2026-04-19 23:05 | 45.32559 | -75.64599 | 372 ft | 8 kts | 126° |
| 2026-04-19 23:05 | 45.32557 | -75.64595 | 372 ft | 0 kts | 135° |
| 2026-04-19 23:06 | 45.32555 | -75.64593 | 372 ft | 1 kts | 135° |
| 2026-04-19 23:06 | 45.32535 | -75.64567 | 372 ft | 7 kts | 140° |
| 2026-04-19 23:07 | 45.32486 | -75.64556 | 373 ft | 6 kts | 221° |
| 2026-04-19 23:07 | 45.32473 | -75.64587 | 373 ft | 1 kts | 237° |
| 2026-04-19 23:07 | 45.32448 | -75.64640 | 372 ft | 16 kts | 237° |
| 2026-04-19 23:07 | 45.32303 | -75.64963 | 375 ft | 63 kts | 237° |
| 2026-04-19 23:08 | 45.31980 | -75.65680 | 372 ft | 108 kts | 237° |
| 2026-04-19 23:08 | 45.31546 | -75.66721 | 420 ft | 131 kts | 242° |
| 2026-04-19 23:08 | 45.31057 | -75.67834 | 683 ft | 137 kts | 242° |
| 2026-04-19 23:08 | 45.30551 | -75.69026 | 1031 ft | 143 kts | 240° |
| 2026-04-19 23:09 | 45.30024 | -75.70261 | 1454 ft | 152 kts | 236° |
| 2026-04-19 23:09 | 45.29448 | -75.71612 | 1874 ft | 168 kts | 235° |
| 2026-04-19 23:09 | 45.29088 | -75.73192 | 2214 ft | 178 kts | 267° |
| 2026-04-19 23:09 | 45.29558 | -75.74897 | 2618 ft | 193 kts | 288° |
| 2026-04-19 23:10 | 45.30010 | -75.76002 | 2883 ft | 197 kts | 288° |
| 2026-04-19 23:10 | 45.30721 | -75.77786 | 3028 ft | 216 kts | 288° |
| 2026-04-19 23:10 | 45.31460 | -75.79674 | 3014 ft | 228 kts | 288° |
| 2026-04-19 23:10 | 45.32215 | -75.81607 | 3009 ft | 220 kts | 289° |
| 2026-04-19 23:11 | 45.32962 | -75.83493 | 3007 ft | 219 kts | 289° |
| 2026-04-19 23:11 | 45.33897 | -75.85242 | 2971 ft | 236 kts | 316° |
| 2026-04-19 23:11 | 45.35489 | -75.86137 | 3001 ft | 258 kts | 341° |
| 2026-04-19 23:11 | 45.37374 | -75.86559 | 3285 ft | 284 kts | 346° |
| 2026-04-19 23:12 | 45.39331 | -75.86979 | 3675 ft | 285 kts | 342° |
| 2026-04-19 23:12 | 45.41278 | -75.87561 | 4049 ft | 285 kts | 340° |
| 2026-04-19 23:12 | 45.43211 | -75.88169 | 4406 ft | 286 kts | 341° |
| 2026-04-19 23:12 | 45.45178 | -75.88730 | 4770 ft | 288 kts | 342° |
| 2026-04-19 23:13 | 45.47197 | -75.89297 | 5211 ft | 309 kts | 342° |
| 2026-04-19 23:13 | 45.49380 | -75.89938 | 5684 ft | 335 kts | 342° |
| 2026-04-19 23:13 | 45.51750 | -75.90623 | 6202 ft | 347 kts | 342° |
| 2026-04-19 23:13 | 45.54122 | -75.91284 | 6637 ft | 349 kts | 343° |
| 2026-04-19 23:14 | 45.56506 | -75.91967 | 7076 ft | 350 kts | 342° |
| 2026-04-19 23:14 | 45.58858 | -75.92655 | 7492 ft | 352 kts | 342° |
| 2026-04-19 23:14 | 45.61298 | -75.93365 | 7924 ft | 353 kts | 342° |
| 2026-04-19 23:14 | 45.63682 | -75.94050 | 8351 ft | 354 kts | 342° |
| 2026-04-19 23:15 | 45.66123 | -75.94755 | 8785 ft | 356 kts | 342° |
| 2026-04-19 23:15 | 45.68532 | -75.95455 | 9229 ft | 358 kts | 341° |
| 2026-04-19 23:15 | 45.71002 | -75.96172 | 9688 ft | 359 kts | 341° |
| 2026-04-19 23:15 | 45.73458 | -75.96884 | 10119 ft | 361 kts | 341° |
| 2026-04-19 23:16 | 45.75893 | -75.97590 | 10511 ft | 364 kts | 341° |
| 2026-04-19 23:16 | 45.78409 | -75.98323 | 10936 ft | 366 kts | 341° |
| 2026-04-19 23:16 | 45.80862 | -75.99038 | 11361 ft | 368 kts | 341° |
| 2026-04-19 23:16 | 45.83355 | -75.99755 | 11790 ft | 356 kts | 341° |
| 2026-04-19 23:17 | 45.85790 | -76.00467 | 12209 ft | 359 kts | 341° |
| 2026-04-19 23:17 | 45.88239 | -76.01193 | 12631 ft | 363 kts | 341° |
| 2026-04-19 23:17 | 45.90734 | -76.01922 | 13098 ft | 366 kts | 341° |
| 2026-04-19 23:17 | 45.93287 | -76.02346 | 13536 ft | 378 kts | 355° |
| 2026-04-19 23:18 | 45.95925 | -76.01926 | 13978 ft | 385 kts | 5° |
| 2026-04-19 23:18 | 45.98565 | -76.01097 | 14387 ft | 391 kts | 10° |
| 2026-04-19 23:18 | 46.01205 | -76.00099 | 14812 ft | 392 kts | 9° |
| 2026-04-19 23:18 | 46.03863 | -75.99250 | 15232 ft | 393 kts | 6° |
| 2026-04-19 23:19 | 46.06552 | -75.98513 | 15657 ft | 395 kts | 6° |
| 2026-04-19 23:19 | 46.09258 | -75.97700 | 16078 ft | 399 kts | 8° |
| 2026-04-19 23:19 | 46.11988 | -75.96797 | 16535 ft | 402 kts | 8° |
| 2026-04-19 23:19 | 46.14717 | -75.95922 | 16976 ft | 404 kts | 7° |
| 2026-04-19 23:20 | 46.17476 | -75.95089 | 17426 ft | 406 kts | 6° |
| 2026-04-19 23:20 | 46.20249 | -75.94240 | 17890 ft | 409 kts | 7° |
| 2026-04-19 23:20 | 46.23046 | -75.93351 | 18347 ft | 412 kts | 7° |
| 2026-04-19 23:20 | 46.25846 | -75.92461 | 18737 ft | 414 kts | 7° |
| 2026-04-19 23:21 | 46.28667 | -75.91584 | 19142 ft | 416 kts | 7° |
| 2026-04-19 23:21 | 46.31509 | -75.90702 | 19560 ft | 419 kts | 7° |
| 2026-04-19 23:21 | 46.34367 | -75.89801 | 19994 ft | 421 kts | 7° |
| 2026-04-19 23:21 | 46.37229 | -75.88895 | 20420 ft | 423 kts | 7° |
| 2026-04-19 23:22 | 46.40121 | -75.87986 | 20845 ft | 426 kts | 7° |
| 2026-04-19 23:22 | 46.43024 | -75.87076 | 21281 ft | 429 kts | 7° |
| 2026-04-19 23:22 | 46.45947 | -75.86153 | 21744 ft | 431 kts | 8° |
| 2026-04-19 23:22 | 46.48889 | -75.85221 | 22193 ft | 434 kts | 8° |
| 2026-04-19 23:23 | 46.51848 | -75.84286 | 22652 ft | 437 kts | 8° |
| 2026-04-19 23:23 | 46.54786 | -75.83358 | 23102 ft | 439 kts | 8° |
| 2026-04-19 23:23 | 46.57819 | -75.82396 | 23591 ft | 442 kts | 8° |
| 2026-04-19 23:23 | 46.60834 | -75.81439 | 23978 ft | 444 kts | 8° |
| 2026-04-19 23:24 | 46.63860 | -75.80478 | 24371 ft | 447 kts | 8° |
| 2026-04-19 23:24 | 46.66905 | -75.79510 | 24768 ft | 450 kts | 8° |
| 2026-04-19 23:24 | 46.69973 | -75.78534 | 25192 ft | 453 kts | 8° |
| 2026-04-19 23:24 | 46.73057 | -75.77551 | 25603 ft | 455 kts | 8° |
| 2026-04-19 23:25 | 46.76162 | -75.76560 | 26019 ft | 458 kts | 8° |
| 2026-04-19 23:25 | 46.79279 | -75.75565 | 26439 ft | 460 kts | 8° |
| 2026-04-19 23:25 | 46.82388 | -75.74571 | 26893 ft | 462 kts | 8° |
| 2026-04-19 23:25 | 46.85528 | -75.73565 | 27322 ft | 464 kts | 8° |
| 2026-04-19 23:26 | 46.88684 | -75.72553 | 27762 ft | 465 kts | 8° |
| 2026-04-19 23:26 | 46.91848 | -75.71537 | 28206 ft | 466 kts | 8° |
| 2026-04-19 23:26 | 46.95013 | -75.70521 | 28690 ft | 466 kts | 8° |
| 2026-04-19 23:26 | 46.98185 | -75.69500 | 29138 ft | 467 kts | 8° |
| 2026-04-19 23:27 | 47.01353 | -75.68479 | 29603 ft | 466 kts | 8° |
| 2026-04-19 23:27 | 47.04524 | -75.67457 | 30054 ft | 466 kts | 8° |
| 2026-04-19 23:27 | 47.07677 | -75.66438 | 30468 ft | 464 kts | 8° |
| 2026-04-19 23:27 | 47.10828 | -75.65419 | 30858 ft | 463 kts | 8° |
| 2026-04-19 23:28 | 47.17235 | -75.63351 | 30940 ft | 480 kts | 8° |
| 2026-04-19 23:28 | 47.23893 | -75.61184 | 30953 ft | 500 kts | 9° |
| 2026-04-19 23:29 | 47.30780 | -75.58941 | 30953 ft | 511 kts | 9° |
| 2026-04-19 23:29 | 47.37728 | -75.56670 | 30942 ft | 509 kts | 9° |
| 2026-04-19 23:30 | 47.44649 | -75.54408 | 30951 ft | 510 kts | 9° |
| 2026-04-19 23:30 | 47.51582 | -75.52129 | 30950 ft | 510 kts | 9° |
| 2026-04-19 23:31 | 47.58508 | -75.49852 | 30954 ft | 510 kts | 9° |
| 2026-04-19 23:31 | 47.65447 | -75.47561 | 30952 ft | 510 kts | 9° |
| 2026-04-19 23:32 | 47.72375 | -75.45269 | 30959 ft | 511 kts | 9° |
| 2026-04-19 23:32 | 47.79328 | -75.42962 | 30952 ft | 511 kts | 9° |
| 2026-04-19 23:33 | 47.86259 | -75.40656 | 30958 ft | 512 kts | 9° |
| 2026-04-19 23:33 | 47.93209 | -75.38338 | 30958 ft | 512 kts | 9° |
| 2026-04-19 23:34 | 48.00153 | -75.36014 | 30968 ft | 512 kts | 9° |
| 2026-04-19 23:34 | 48.07110 | -75.33681 | 30965 ft | 512 kts | 9° |
| 2026-04-19 23:35 | 48.14064 | -75.31341 | 30968 ft | 512 kts | 9° |
| 2026-04-19 23:35 | 48.17549 | -75.30172 | 31607 ft | 515 kts | 12° |
| 2026-04-19 23:35 | 48.21046 | -75.28988 | 31491 ft | 513 kts | 12° |
| 2026-04-19 23:36 | 48.24522 | -75.27808 | 31373 ft | 512 kts | 12° |
| 2026-04-19 23:36 | 48.27989 | -75.26635 | 31247 ft | 511 kts | 11° |
| 2026-04-19 23:36 | 48.31464 | -75.25461 | 31129 ft | 510 kts | 12° |
| 2026-04-19 23:36 | 48.34923 | -75.24287 | 31009 ft | 509 kts | 12° |
| 2026-04-19 23:37 | 48.41771 | -75.21954 | 30968 ft | 509 kts | 12° |
| 2026-04-19 23:37 | 48.48693 | -75.19596 | 30973 ft | 510 kts | 12° |
| 2026-04-19 23:38 | 48.55602 | -75.17230 | 30975 ft | 510 kts | 12° |
| 2026-04-19 23:38 | 48.62534 | -75.14854 | 30972 ft | 510 kts | 12° |
| 2026-04-19 23:39 | 48.69463 | -75.12469 | 30972 ft | 511 kts | 12° |
| 2026-04-19 23:39 | 48.76435 | -75.10065 | 30977 ft | 511 kts | 12° |
| 2026-04-19 23:40 | 48.83329 | -75.07679 | 30975 ft | 511 kts | 12° |
| 2026-04-19 23:40 | 48.90265 | -75.05274 | 30972 ft | 511 kts | 12° |
| 2026-04-19 23:41 | 48.97208 | -75.02857 | 30973 ft | 512 kts | 12° |
| 2026-04-19 23:41 | 49.04201 | -75.00418 | 30971 ft | 513 kts | 12° |
| 2026-04-19 23:42 | 49.11098 | -74.98003 | 30975 ft | 513 kts | 12° |
| 2026-04-19 23:42 | 49.18066 | -74.95559 | 30976 ft | 513 kts | 12° |
| 2026-04-19 23:43 | 49.25028 | -74.93109 | 30976 ft | 514 kts | 12° |
| 2026-04-19 23:43 | 49.31995 | -74.90649 | 30979 ft | 514 kts | 12° |
| 2026-04-19 23:44 | 49.38969 | -74.88181 | 30980 ft | 515 kts | 12° |
| 2026-04-19 23:44 | 49.45961 | -74.85699 | 30976 ft | 515 kts | 12° |
| 2026-04-19 23:45 | 49.52938 | -74.83214 | 30966 ft | 515 kts | 12° |
| 2026-04-19 23:45 | 49.59924 | -74.80719 | 30946 ft | 515 kts | 12° |
| 2026-04-19 23:46 | 49.66922 | -74.78213 | 30935 ft | 516 kts | 12° |
| 2026-04-19 23:46 | 49.73918 | -74.75699 | 30924 ft | 517 kts | 12° |
| 2026-04-19 23:47 | 49.80931 | -74.73173 | 30921 ft | 518 kts | 12° |
| 2026-04-19 23:47 | 49.87956 | -74.70634 | 30928 ft | 518 kts | 12° |
| 2026-04-19 23:48 | 49.94935 | -74.68105 | 30932 ft | 519 kts | 13° |
| 2026-04-19 23:48 | 50.02002 | -74.65536 | 30951 ft | 519 kts | 13° |
| 2026-04-19 23:49 | 50.09000 | -74.62984 | 30967 ft | 520 kts | 13° |
| 2026-04-19 23:49 | 50.16042 | -74.60408 | 30976 ft | 520 kts | 13° |
| 2026-04-19 23:50 | 50.23097 | -74.57821 | 30979 ft | 521 kts | 13° |
| 2026-04-19 23:50 | 50.30172 | -74.55217 | 30978 ft | 522 kts | 13° |
| 2026-04-19 23:51 | 50.37244 | -74.52607 | 30983 ft | 523 kts | 13° |
| 2026-04-19 23:51 | 50.44323 | -74.49987 | 30985 ft | 523 kts | 13° |
| 2026-04-19 23:52 | 50.51393 | -74.47361 | 30988 ft | 524 kts | 13° |
| 2026-04-19 23:52 | 50.58504 | -74.44712 | 30988 ft | 524 kts | 13° |
| 2026-04-19 23:53 | 50.65609 | -74.42057 | 30985 ft | 525 kts | 13° |
| 2026-04-19 23:53 | 50.72708 | -74.39397 | 30985 ft | 525 kts | 13° |
| 2026-04-19 23:54 | 50.79773 | -74.36739 | 30989 ft | 526 kts | 13° |
| 2026-04-19 23:54 | 50.85733 | -74.34493 | 30991 ft | 526 kts | 13° |
| 2026-04-19 23:55 | 50.94022 | -74.31357 | 30990 ft | 527 kts | 13° |
| 2026-04-19 23:55 | 50.99991 | -74.29092 | 30991 ft | 527 kts | 13° |
| 2026-04-19 23:56 | 51.08292 | -74.25933 | 30990 ft | 528 kts | 13° |
| 2026-04-19 23:56 | 51.14274 | -74.23698 | 30993 ft | 528 kts | 12° |
| 2026-04-19 23:57 | 51.21459 | -74.21201 | 30992 ft | 528 kts | 12° |
| 2026-04-19 23:57 | 51.28645 | -74.18673 | 30992 ft | 528 kts | 12° |
| 2026-04-19 23:58 | 51.35779 | -74.16183 | 30988 ft | 529 kts | 12° |
| 2026-04-19 23:58 | 51.42972 | -74.13638 | 30990 ft | 529 kts | 12° |
| 2026-04-19 23:59 | 51.50179 | -74.11101 | 30994 ft | 530 kts | 12° |
| 2026-04-19 23:59 | 51.57386 | -74.08541 | 30990 ft | 530 kts | 12° |
| 2026-04-20 00:00 | 51.64595 | -74.05982 | 30989 ft | 531 kts | 12° |
| 2026-04-20 00:00 | 51.71810 | -74.03405 | 30991 ft | 531 kts | 12° |
| 2026-04-20 00:01 | 51.79030 | -74.00823 | 30989 ft | 532 kts | 12° |
| 2026-04-20 00:02 | 51.89868 | -73.96928 | 30988 ft | 532 kts | 12° |
| 2026-04-20 00:02 | 51.97066 | -73.94332 | 30979 ft | 532 kts | 12° |
| 2026-04-20 00:03 | 52.04295 | -73.91713 | 30983 ft | 532 kts | 12° |
| 2026-04-20 00:03 | 52.11518 | -73.89092 | 30979 ft | 533 kts | 12° |
| 2026-04-20 00:04 | 52.18783 | -73.86442 | 30967 ft | 534 kts | 12° |
| 2026-04-20 00:04 | 52.26010 | -73.83801 | 30971 ft | 534 kts | 12° |
| 2026-04-20 00:05 | 52.33269 | -73.81137 | 30960 ft | 533 kts | 12° |
| 2026-04-20 00:05 | 52.40509 | -73.78473 | 30959 ft | 534 kts | 12° |
| 2026-04-20 00:06 | 52.47753 | -73.75796 | 30951 ft | 534 kts | 12° |
| 2026-04-20 00:06 | 52.55017 | -73.73105 | 30942 ft | 534 kts | 12° |
| 2026-04-20 00:07 | 52.62255 | -73.70413 | 30936 ft | 534 kts | 12° |
| 2026-04-20 00:07 | 52.69522 | -73.67702 | 30936 ft | 535 kts | 12° |
| 2026-04-20 00:08 | 52.76772 | -73.64986 | 30934 ft | 535 kts | 12° |
| 2026-04-20 00:08 | 52.84043 | -73.62256 | 30928 ft | 535 kts | 12° |
| 2026-04-20 00:09 | 52.91307 | -73.59516 | 30927 ft | 536 kts | 12° |
| 2026-04-20 00:09 | 52.98574 | -73.56769 | 30921 ft | 536 kts | 12° |
| 2026-04-20 00:10 | 53.05854 | -73.54004 | 30918 ft | 537 kts | 12° |
| 2026-04-20 00:10 | 53.13140 | -73.51229 | 30913 ft | 537 kts | 12° |
| 2026-04-20 00:11 | 53.20431 | -73.48442 | 30909 ft | 538 kts | 12° |
| 2026-04-20 00:11 | 53.27687 | -73.45659 | 30907 ft | 538 kts | 12° |
| 2026-04-20 00:12 | 53.34994 | -73.42847 | 30893 ft | 539 kts | 12° |
| 2026-04-20 00:12 | 53.42307 | -73.40022 | 30891 ft | 540 kts | 12° |
| 2026-04-20 00:13 | 53.49615 | -73.37189 | 30868 ft | 540 kts | 12° |
| 2026-04-20 00:13 | 53.56938 | -73.34341 | 30854 ft | 540 kts | 12° |
| 2026-04-20 00:14 | 53.64251 | -73.31485 | 30843 ft | 539 kts | 12° |
| 2026-04-20 00:14 | 53.71566 | -73.28620 | 30832 ft | 540 kts | 12° |
| 2026-04-20 00:15 | 53.78885 | -73.25742 | 30835 ft | 540 kts | 12° |
| 2026-04-20 00:15 | 53.86199 | -73.22855 | 30841 ft | 540 kts | 12° |
| 2026-04-20 00:16 | 53.93510 | -73.19961 | 30844 ft | 541 kts | 12° |
| 2026-04-20 00:16 | 54.00858 | -73.17040 | 30843 ft | 541 kts | 12° |
| 2026-04-20 00:17 | 54.08189 | -73.14116 | 30832 ft | 541 kts | 12° |
| 2026-04-20 00:17 | 54.15513 | -73.11183 | 30828 ft | 541 kts | 12° |
| 2026-04-20 00:18 | 54.22853 | -73.08234 | 30824 ft | 542 kts | 12° |
| 2026-04-20 00:18 | 54.30203 | -73.05270 | 30816 ft | 542 kts | 12° |
| 2026-04-20 00:19 | 54.37503 | -73.02315 | 30803 ft | 542 kts | 12° |
| 2026-04-20 00:19 | 54.44843 | -72.99333 | 30797 ft | 543 kts | 13° |
| 2026-04-20 00:20 | 54.52196 | -72.96336 | 30795 ft | 543 kts | 12° |
| 2026-04-20 00:20 | 54.59562 | -72.93321 | 30794 ft | 543 kts | 13° |
| 2026-04-20 00:21 | 54.66919 | -72.90299 | 30784 ft | 543 kts | 13° |
| 2026-04-20 00:21 | 54.74275 | -72.87265 | 30779 ft | 543 kts | 13° |
| 2026-04-20 00:22 | 54.81608 | -72.84231 | 30766 ft | 543 kts | 13° |
| 2026-04-20 00:22 | 54.88968 | -72.81173 | 30767 ft | 543 kts | 13° |
| 2026-04-20 00:23 | 54.96313 | -72.78111 | 30754 ft | 543 kts | 13° |
| 2026-04-20 00:23 | 55.03649 | -72.75041 | 30751 ft | 543 kts | 13° |
| 2026-04-20 00:24 | 55.10999 | -72.71953 | 30751 ft | 543 kts | 13° |
| 2026-04-20 00:24 | 55.18343 | -72.68856 | 30743 ft | 543 kts | 13° |
| 2026-04-20 00:25 | 55.25682 | -72.65748 | 30741 ft | 543 kts | 13° |
| 2026-04-20 00:25 | 55.33034 | -72.62625 | 30728 ft | 543 kts | 13° |
| 2026-04-20 00:26 | 55.40373 | -72.59494 | 30722 ft | 543 kts | 13° |
| 2026-04-20 00:26 | 55.47723 | -72.56347 | 30713 ft | 543 kts | 13° |
| 2026-04-20 00:27 | 55.55070 | -72.53190 | 30714 ft | 544 kts | 13° |
| 2026-04-20 00:27 | 55.62426 | -72.50015 | 30706 ft | 544 kts | 13° |
| 2026-04-20 00:28 | 55.69779 | -72.46829 | 30702 ft | 544 kts | 13° |
| 2026-04-20 00:28 | 55.77127 | -72.43635 | 30710 ft | 543 kts | 13° |
| 2026-04-20 00:29 | 55.84421 | -72.40451 | 30699 ft | 543 kts | 13° |
| 2026-04-20 00:29 | 55.91740 | -72.37243 | 30682 ft | 543 kts | 13° |
| 2026-04-20 00:30 | 55.99084 | -72.34012 | 30680 ft | 542 kts | 13° |
| 2026-04-20 00:30 | 56.06413 | -72.30776 | 30678 ft | 543 kts | 13° |
| 2026-04-20 00:31 | 56.13746 | -72.27523 | 30673 ft | 542 kts | 13° |
| 2026-04-20 00:31 | 56.21072 | -72.24263 | 30670 ft | 542 kts | 13° |
| 2026-04-20 00:32 | 56.28389 | -72.20993 | 30668 ft | 542 kts | 13° |
| 2026-04-20 00:32 | 56.35713 | -72.17707 | 30663 ft | 542 kts | 13° |
| 2026-04-20 00:33 | 56.43034 | -72.14409 | 30660 ft | 543 kts | 13° |
| 2026-04-20 00:33 | 56.50359 | -72.11096 | 30657 ft | 543 kts | 13° |
| 2026-04-20 00:34 | 56.57691 | -72.07767 | 30657 ft | 543 kts | 13° |
| 2026-04-20 00:34 | 56.65016 | -72.04429 | 30652 ft | 543 kts | 13° |
| 2026-04-20 00:35 | 56.72332 | -72.01080 | 30648 ft | 542 kts | 13° |
| 2026-04-20 00:35 | 56.79659 | -71.97712 | 30650 ft | 542 kts | 13° |
| 2026-04-20 00:36 | 56.86967 | -71.94342 | 30645 ft | 542 kts | 13° |
| 2026-04-20 00:36 | 56.94296 | -71.90945 | 30642 ft | 543 kts | 13° |
| 2026-04-20 00:37 | 57.01567 | -71.87565 | 30640 ft | 543 kts | 14° |
| 2026-04-20 00:37 | 57.08883 | -71.84146 | 30639 ft | 543 kts | 14° |
| 2026-04-20 00:38 | 57.16206 | -71.80714 | 30632 ft | 543 kts | 14° |
| 2026-04-20 00:38 | 57.23522 | -71.77268 | 30630 ft | 543 kts | 14° |
| 2026-04-20 00:39 | 57.30847 | -71.73806 | 30630 ft | 543 kts | 14° |
| 2026-04-20 00:39 | 57.38157 | -71.70334 | 30630 ft | 543 kts | 14° |
| 2026-04-20 00:40 | 57.45474 | -71.66847 | 30630 ft | 543 kts | 14° |
| 2026-04-20 00:40 | 57.52796 | -71.63342 | 30626 ft | 543 kts | 14° |
| 2026-04-20 00:41 | 57.60107 | -71.59828 | 30624 ft | 543 kts | 14° |
| 2026-04-20 00:41 | 57.67423 | -71.56297 | 30631 ft | 543 kts | 14° |
| 2026-04-20 00:42 | 57.74742 | -71.52749 | 30624 ft | 543 kts | 14° |
| 2026-04-20 00:42 | 57.82054 | -71.49191 | 30628 ft | 542 kts | 14° |
| 2026-04-20 00:43 | 57.88128 | -71.46223 | 30625 ft | 542 kts | 14° |
| 2026-04-20 00:43 | 57.96620 | -71.42056 | 30626 ft | 542 kts | 14° |
| 2026-04-20 00:44 | 58.02738 | -71.39042 | 30628 ft | 542 kts | 14° |
| 2026-04-20 00:44 | 58.10029 | -71.35436 | 30623 ft | 542 kts | 14° |
| 2026-04-20 00:45 | 58.17326 | -71.31811 | 30626 ft | 542 kts | 14° |
| 2026-04-20 00:45 | 58.24622 | -71.28172 | 30626 ft | 542 kts | 14° |
| 2026-04-20 00:46 | 58.31915 | -71.24519 | 30629 ft | 542 kts | 14° |
| 2026-04-20 00:46 | 58.39205 | -71.20851 | 30626 ft | 541 kts | 14° |
| 2026-04-20 00:47 | 58.46488 | -71.17171 | 30627 ft | 541 kts | 14° |
| 2026-04-20 00:47 | 58.53720 | -71.13502 | 30631 ft | 541 kts | 14° |
| 2026-04-20 00:48 | 58.61029 | -71.09777 | 30626 ft | 540 kts | 14° |
| 2026-04-20 00:48 | 58.68291 | -71.06060 | 30629 ft | 540 kts | 14° |
| 2026-04-20 00:49 | 58.75558 | -71.02325 | 30626 ft | 540 kts | 14° |
| 2026-04-20 00:49 | 58.82825 | -70.98573 | 30622 ft | 540 kts | 14° |
| 2026-04-20 00:50 | 58.90039 | -70.94833 | 30618 ft | 540 kts | 14° |
| 2026-04-20 00:50 | 58.97276 | -70.91065 | 30618 ft | 539 kts | 14° |
| 2026-04-20 00:51 | 59.04520 | -70.87276 | 30620 ft | 539 kts | 14° |
| 2026-04-20 00:51 | 59.11764 | -70.83471 | 30610 ft | 538 kts | 14° |
| 2026-04-20 00:52 | 59.18971 | -70.79667 | 30609 ft | 538 kts | 14° |
| 2026-04-20 00:52 | 59.26203 | -70.75837 | 30611 ft | 537 kts | 14° |
| 2026-04-20 00:53 | 59.33397 | -70.72007 | 30610 ft | 537 kts | 14° |
| 2026-04-20 00:53 | 59.40618 | -70.68147 | 30607 ft | 537 kts | 14° |
| 2026-04-20 00:54 | 59.47814 | -70.64283 | 30605 ft | 536 kts | 14° |
| 2026-04-20 00:54 | 59.55019 | -70.60396 | 30609 ft | 536 kts | 14° |
| 2026-04-20 00:55 | 59.62211 | -70.56502 | 30602 ft | 535 kts | 14° |
| 2026-04-20 00:55 | 59.69391 | -70.52593 | 30605 ft | 535 kts | 14° |
| 2026-04-20 00:56 | 59.76558 | -70.48677 | 30604 ft | 535 kts | 14° |
| 2026-04-20 00:56 | 59.83728 | -70.44740 | 30601 ft | 534 kts | 14° |
| 2026-04-20 00:57 | 59.90880 | -70.40797 | 30600 ft | 533 kts | 14° |
| 2026-04-20 00:57 | 59.97984 | -70.36860 | 30592 ft | 533 kts | 14° |
| 2026-04-20 00:58 | 60.05124 | -70.32890 | 30595 ft | 533 kts | 14° |
| 2026-04-20 00:58 | 60.12266 | -70.28895 | 30592 ft | 532 kts | 14° |
| 2026-04-20 00:59 | 60.19393 | -70.24896 | 30592 ft | 531 kts | 14° |
| 2026-04-20 00:59 | 60.26518 | -70.20875 | 30591 ft | 531 kts | 14° |
| 2026-04-20 01:00 | 60.33615 | -70.16856 | 30587 ft | 530 kts | 14° |
| 2026-04-20 01:00 | 60.40716 | -70.12815 | 30581 ft | 530 kts | 14° |
| 2026-04-20 01:01 | 60.47820 | -70.08752 | 30585 ft | 530 kts | 14° |
| 2026-04-20 01:01 | 60.54917 | -70.04678 | 30582 ft | 529 kts | 14° |
| 2026-04-20 01:02 | 60.61990 | -70.00597 | 30578 ft | 529 kts | 14° |
| 2026-04-20 01:02 | 60.69060 | -69.96499 | 30574 ft | 528 kts | 14° |
| 2026-04-20 01:03 | 60.76075 | -69.92415 | 30571 ft | 528 kts | 14° |
| 2026-04-20 01:03 | 60.83132 | -69.88288 | 30559 ft | 527 kts | 14° |
| 2026-04-20 01:04 | 60.90162 | -69.84156 | 30562 ft | 526 kts | 14° |
| 2026-04-20 01:04 | 60.97219 | -69.79993 | 30562 ft | 526 kts | 15° |
| 2026-04-20 01:05 | 61.04236 | -69.75830 | 30555 ft | 525 kts | 15° |
| 2026-04-20 01:05 | 61.11253 | -69.71651 | 30553 ft | 524 kts | 15° |
| 2026-04-20 01:06 | 61.18302 | -69.67431 | 30550 ft | 524 kts | 15° |
| 2026-04-20 01:06 | 61.25276 | -69.63238 | 30547 ft | 524 kts | 15° |
| 2026-04-20 01:07 | 61.32259 | -69.59019 | 30551 ft | 524 kts | 15° |
| 2026-04-20 01:07 | 61.39275 | -69.54762 | 30544 ft | 524 kts | 15° |
| 2026-04-20 01:08 | 61.46258 | -69.50503 | 30538 ft | 523 kts | 15° |
| 2026-04-20 01:08 | 61.53263 | -69.46213 | 30534 ft | 523 kts | 15° |
| 2026-04-20 01:09 | 61.60245 | -69.41916 | 30530 ft | 523 kts | 15° |
| 2026-04-20 01:09 | 61.67221 | -69.37602 | 30524 ft | 522 kts | 15° |
| 2026-04-20 01:10 | 61.74191 | -69.33271 | 30521 ft | 522 kts | 15° |
| 2026-04-20 01:10 | 61.84630 | -69.26748 | 30515 ft | 521 kts | 15° |
| 2026-04-20 01:11 | 61.91566 | -69.22387 | 30507 ft | 520 kts | 15° |
| 2026-04-20 01:11 | 61.98499 | -69.18008 | 30499 ft | 520 kts | 15° |
| 2026-04-20 01:12 | 62.05421 | -69.13614 | 30487 ft | 519 kts | 15° |
| 2026-04-20 01:12 | 62.12356 | -69.09192 | 30473 ft | 518 kts | 15° |
| 2026-04-20 01:13 | 62.19215 | -69.04797 | 30479 ft | 518 kts | 15° |
| 2026-04-20 01:13 | 62.22671 | -69.02574 | 30219 ft | 518 kts | 15° |
| 2026-04-20 01:13 | 62.26116 | -69.00354 | 29718 ft | 514 kts | 16° |
| 2026-04-20 01:14 | 62.29519 | -68.98155 | 29131 ft | 508 kts | 16° |
| 2026-04-20 01:14 | 62.32880 | -68.95978 | 28509 ft | 501 kts | 16° |
| 2026-04-20 01:14 | 62.36201 | -68.93822 | 27896 ft | 494 kts | 16° |
| 2026-04-20 01:14 | 62.39458 | -68.91703 | 27306 ft | 487 kts | 16° |
| 2026-04-20 01:15 | 62.42685 | -68.89600 | 26721 ft | 480 kts | 16° |
| 2026-04-20 01:15 | 62.45851 | -68.87531 | 26151 ft | 473 kts | 16° |
| 2026-04-20 01:15 | 62.48985 | -68.85478 | 25588 ft | 467 kts | 17° |
| 2026-04-20 01:15 | 62.52071 | -68.83451 | 25035 ft | 460 kts | 17° |
| 2026-04-20 01:16 | 62.55110 | -68.81455 | 24499 ft | 454 kts | 17° |
| 2026-04-20 01:16 | 62.58107 | -68.79478 | 23968 ft | 448 kts | 17° |
| 2026-04-20 01:16 | 62.61074 | -68.77516 | 23451 ft | 442 kts | 17° |
| 2026-04-20 01:16 | 62.63993 | -68.75584 | 22936 ft | 436 kts | 17° |
| 2026-04-20 01:17 | 62.66884 | -68.73668 | 22301 ft | 429 kts | 17° |
| 2026-04-20 01:17 | 62.69719 | -68.71783 | 21670 ft | 423 kts | 17° |
| 2026-04-20 01:17 | 62.72480 | -68.69942 | 21072 ft | 418 kts | 17° |
| 2026-04-20 01:17 | 62.75248 | -68.68096 | 20476 ft | 413 kts | 17° |
| 2026-04-20 01:18 | 62.77977 | -68.66272 | 19894 ft | 408 kts | 18° |
| 2026-04-20 01:18 | 62.80672 | -68.64467 | 19329 ft | 403 kts | 18° |
| 2026-04-20 01:18 | 62.83355 | -68.62668 | 18760 ft | 399 kts | 18° |
| 2026-04-20 01:18 | 62.85999 | -68.60889 | 18213 ft | 394 kts | 18° |
| 2026-04-20 01:19 | 62.88607 | -68.59131 | 17660 ft | 390 kts | 18° |
| 2026-04-20 01:19 | 62.91155 | -68.57410 | 17056 ft | 386 kts | 18° |
| 2026-04-20 01:19 | 62.93724 | -68.55673 | 16445 ft | 380 kts | 18° |
| 2026-04-20 01:19 | 62.96218 | -68.53986 | 15835 ft | 371 kts | 18° |
| 2026-04-20 01:20 | 62.98662 | -68.52327 | 15243 ft | 363 kts | 18° |
| 2026-04-20 01:20 | 63.01052 | -68.50702 | 14657 ft | 355 kts | 18° |
| 2026-04-20 01:20 | 63.03384 | -68.49113 | 14082 ft | 346 kts | 18° |
| 2026-04-20 01:20 | 63.05656 | -68.47565 | 13520 ft | 339 kts | 18° |
| 2026-04-20 01:21 | 63.07898 | -68.46032 | 12934 ft | 333 kts | 18° |
| 2026-04-20 01:21 | 63.10063 | -68.44551 | 12326 ft | 328 kts | 18° |
| 2026-04-20 01:21 | 63.12233 | -68.43065 | 11720 ft | 324 kts | 18° |
| 2026-04-20 01:21 | 63.14375 | -68.41594 | 11127 ft | 321 kts | 18° |
| 2026-04-20 01:22 | 63.16504 | -68.40129 | 10546 ft | 318 kts | 18° |
| 2026-04-20 01:22 | 63.18620 | -68.38673 | 9983 ft | 316 kts | 18° |
| 2026-04-20 01:22 | 63.20683 | -68.37251 | 9441 ft | 314 kts | 18° |
| 2026-04-20 01:22 | 63.22761 | -68.35815 | 8826 ft | 311 kts | 18° |
| 2026-04-20 01:23 | 63.24815 | -68.34396 | 8232 ft | 306 kts | 18° |
| 2026-04-20 01:23 | 63.26845 | -68.32989 | 7641 ft | 305 kts | 18° |
| 2026-04-20 01:23 | 63.28868 | -68.31584 | 7066 ft | 303 kts | 18° |
| 2026-04-20 01:23 | 63.30870 | -68.30193 | 6488 ft | 297 kts | 18° |
| 2026-04-20 01:24 | 63.32802 | -68.28849 | 5932 ft | 292 kts | 18° |
| 2026-04-20 01:24 | 63.34733 | -68.27506 | 5335 ft | 287 kts | 18° |
| 2026-04-20 01:24 | 63.36631 | -68.26184 | 4716 ft | 284 kts | 18° |
| 2026-04-20 01:24 | 63.38506 | -68.24873 | 4132 ft | 281 kts | 19° |
| 2026-04-20 01:25 | 63.40366 | -68.23569 | 3520 ft | 278 kts | 19° |
| 2026-04-20 01:25 | 63.42208 | -68.22278 | 2936 ft | 276 kts | 19° |
| 2026-04-20 01:25 | 63.44032 | -68.21000 | 2323 ft | 273 kts | 19° |
| 2026-04-20 01:25 | 63.45773 | -68.19778 | 2117 ft | 257 kts | 19° |
| 2026-04-20 01:26 | 63.47417 | -68.18626 | 2100 ft | 236 kts | 19° |
| 2026-04-20 01:26 | 63.48931 | -68.17560 | 2095 ft | 221 kts | 19° |
| 2026-04-20 01:26 | 63.50379 | -68.16535 | 2100 ft | 217 kts | 19° |
| 2026-04-20 01:26 | 63.51819 | -68.15517 | 2101 ft | 217 kts | 19° |
| 2026-04-20 01:27 | 63.53241 | -68.14514 | 2106 ft | 217 kts | 19° |
| 2026-04-20 01:27 | 63.54699 | -68.13621 | 2094 ft | 219 kts | 8° |
| 2026-04-20 01:27 | 63.56205 | -68.14008 | 2105 ft | 221 kts | 342° |
| 2026-04-20 01:27 | 63.57535 | -68.15721 | 2114 ft | 218 kts | 320° |
| 2026-04-20 01:28 | 63.58619 | -68.18039 | 2096 ft | 213 kts | 313° |
| 2026-04-20 01:28 | 63.59640 | -68.20424 | 2091 ft | 212 kts | 315° |
| 2026-04-20 01:28 | 63.60664 | -68.22646 | 2084 ft | 204 kts | 316° |
| 2026-04-20 01:28 | 63.61684 | -68.24839 | 2083 ft | 202 kts | 315° |
| 2026-04-20 01:29 | 63.62680 | -68.27064 | 2097 ft | 200 kts | 315° |
| 2026-04-20 01:29 | 63.63691 | -68.29241 | 2099 ft | 201 kts | 316° |
| 2026-04-20 01:29 | 63.64685 | -68.31455 | 2095 ft | 199 kts | 315° |
| 2026-04-20 01:29 | 63.65630 | -68.33507 | 2057 ft | 179 kts | 316° |
| 2026-04-20 01:30 | 63.66479 | -68.35382 | 2057 ft | 171 kts | 315° |
| 2026-04-20 01:30 | 63.67347 | -68.37286 | 1889 ft | 174 kts | 316° |
| 2026-04-20 01:30 | 63.68212 | -68.39186 | 1694 ft | 173 kts | 315° |
| 2026-04-20 01:30 | 63.69047 | -68.41041 | 1484 ft | 163 kts | 317° |
| 2026-04-20 01:31 | 63.69579 | -68.42183 | 1333 ft | 154 kts | 316° |
| 2026-04-20 01:31 | 63.70309 | -68.43830 | 1125 ft | 145 kts | 316° |
| 2026-04-20 01:31 | 63.71028 | -68.45372 | 956 ft | 139 kts | 317° |
| 2026-04-20 01:31 | 63.71703 | -68.46905 | 823 ft | 135 kts | 315° |
| 2026-04-20 01:32 | 63.72373 | -68.48346 | 689 ft | 133 kts | 317° |
| 2026-04-20 01:32 | 63.73030 | -68.49809 | 540 ft | 131 kts | 316° |
| 2026-04-20 01:32 | 63.73691 | -68.51209 | 391 ft | 130 kts | 316° |
| 2026-04-20 01:32 | 63.74330 | -68.52654 | 242 ft | 130 kts | 315° |
| 2026-04-20 01:33 | 63.74954 | -68.54049 | 115 ft | 128 kts | 316° |
| 2026-04-20 01:33 | 63.75531 | -68.55316 | 100 ft | 96 kts | 314° |
| 2026-04-20 01:33 | 63.75795 | -68.55900 | 100 ft | 14 kts | 328° |
| 2026-04-20 01:33 | 63.75841 | -68.55845 | 99 ft | 6 kts | 97° |
| 2026-04-20 01:34 | 63.75836 | -68.55778 | 101 ft | 3 kts | 99° |
| 2026-04-20 01:34 | 63.75835 | -68.55762 | 102 ft | 0 kts | 99° |